Time;durP1;ratioP1;P1;durP2;ratioP2;P2;SDS_P1;SDS_P2;PMS_P1;PMS_P2;Temp;Humidity;BMP_temperature;BMP_pressure;BME280_temperature;BME280_humidity;BME280_pressure;Samples;Min_cycle;Max_cycle;Signal;HPM_P1;HPM_P2
2023/04/05 00:00:20;;;;;;;;;;;;;;;-0.01;58.56;97002.59;5018408;28;20295;-70
2023/04/05 00:02:45;;;;;;;;;;;;;;;0.02;58.43;97008.50;5019588;28;19921;-70
2023/04/05 00:05:11;;;;;;;;;;;;;;;0.06;58.17;97004.16;5002338;28;19971;-69
2023/04/05 00:07:37;;;;;;;;;;;;;;;0.01;57.91;97002.31;5017897;28;20349;-70
2023/04/05 00:10:02;;;;;;;;;;;;;;;0.06;58.35;97004.94;4987425;28;20382;-70
2023/04/05 00:12:28;;;;;;;;;;;;;;;0.02;58.19;97000.41;5018842;28;20417;-70
2023/04/05 00:14:54;;;;;;;;;;;;;;;-0.02;58.71;96997.50;5009374;28;19922;-69
2023/04/05 00:17:19;;;;;;;;;;;;;;;-0.02;57.97;96994.81;4997847;28;20371;-70
2023/04/05 00:19:50;;;;;;;;;;;;;;;-0.04;57.88;97003.19;5018841;28;19917;-70
2023/04/05 00:22:19;;;;;;;;;;;;;;;-0.07;58.20;96995.69;5013291;28;19924;-70
2023/04/05 00:24:44;;;;;;;;;;;;;;;-0.05;57.99;96998.09;5001901;28;19997;-70
2023/04/05 00:27:09;;;;;;;;;;;;;;;0.00;58.14;96992.66;4996418;28;20354;-69
2023/04/05 00:29:35;;;;;;;;;;;;;;;-0.03;57.88;96983.25;4984264;28;19928;-69
2023/04/05 00:32:00;;;;;;;;;;;;;;;-0.03;57.55;96990.53;5002103;28;19922;-69
2023/04/05 00:34:25;;;;;;;;;;;;;;;-0.05;57.64;96984.63;4980118;28;20005;-70
2023/04/05 00:36:51;;;;;;;;;;;;;;;-0.03;58.50;96987.84;5001794;28;19917;-69
2023/04/05 00:39:16;;;;;;;;;;;;;;;-0.11;58.14;96985.78;5003220;28;19995;-70
2023/04/05 00:41:42;;;;;;;;;;;;;;;-0.13;57.82;96977.19;5002858;28;19917;-69
2023/04/05 00:44:08;;;;;;;;;;;;;;;-0.12;57.66;96976.13;5006605;28;19917;-70
2023/04/05 00:46:35;;;;;;;;;;;;;;;-0.13;57.94;96978.00;5020932;28;19924;-69
2023/04/05 00:49:00;;;;;;;;;;;;;;;-0.13;57.84;96979.88;4984429;28;19930;-70
2023/04/05 00:51:26;;;;;;;;;;;;;;;-0.13;58.15;96974.50;5006449;28;19983;-70
2023/04/05 00:53:52;;;;;;;;;;;;;;;-0.15;58.09;96977.47;5020327;28;19924;-69
2023/04/05 00:56:20;;;;;;;;;;;;;;;-0.15;57.83;96974.78;5017391;28;20440;-69
2023/04/05 00:58:47;;;;;;;;;;;;;;;-0.15;57.51;96961.34;5020847;28;19917;-70
2023/04/05 01:01:16;;;;;;;;;;;;;;;-0.13;57.82;96961.84;5017231;28;19925;-69
2023/04/05 01:04:01;;;;;;;;;;;;;;;-0.14;57.84;96956.78;5013832;28;19921;-70
2023/04/05 01:06:43;;;;;;;;;;;;;;;-0.24;57.96;96953.09;5002633;28;19921;-70
2023/04/05 01:09:11;;;;;;;;;;;;;;;-0.27;58.58;96947.50;4995875;28;19937;-69
2023/04/05 01:11:38;;;;;;;;;;;;;;;-0.26;58.34;96947.22;5002665;28;19926;-70
2023/04/05 01:14:03;;;;;;;;;;;;;;;-0.27;58.66;96942.13;4997837;28;19918;-69
2023/04/05 01:16:28;;;;;;;;;;;;;;;-0.24;58.09;96944.22;4998961;28;19924;-69
2023/04/05 01:18:57;;;;;;;;;;;;;;;-0.27;58.25;96942.13;5002914;28;19922;-69
2023/04/05 01:21:37;;;;;;;;;;;;;;;-0.27;57.99;96937.56;4998288;28;19964;-70
2023/04/05 01:24:24;;;;;;;;;;;;;;;-0.34;59.02;96942.50;5000487;28;19921;-69
2023/04/05 01:26:57;;;;;;;;;;;;;;;-0.31;58.32;96930.34;5003946;28;19918;-70
2023/04/05 01:29:22;;;;;;;;;;;;;;;-0.33;58.65;96929.81;4998287;28;20104;-69
2023/04/05 01:31:50;;;;;;;;;;;;;;;-0.35;58.91;96932.00;5001661;28;19922;-70
2023/04/05 01:34:34;;;;;;;;;;;;;;;-0.38;58.82;96930.69;4997709;28;19969;-69
2023/04/05 01:37:01;;;;;;;;;;;;;;;-0.42;59.27;96922.38;5001834;28;19924;-69
2023/04/05 01:39:27;;;;;;;;;;;;;;;-0.43;59.41;96923.50;4998761;28;19917;-69
2023/04/05 01:41:57;;;;;;;;;;;;;;;-0.42;58.81;96917.00;5002271;28;19945;-70
2023/04/05 01:44:22;;;;;;;;;;;;;;;-0.48;59.68;96920.06;5014026;28;19926;-70
2023/04/05 01:46:47;;;;;;;;;;;;;;;-0.49;60.14;96919.25;5038568;28;20000;-70
2023/04/05 01:49:13;;;;;;;;;;;;;;;-0.53;60.10;96915.56;5042340;28;19925;-70
2023/04/05 01:51:40;;;;;;;;;;;;;;;-0.59;60.99;96924.78;5031615;28;19925;-69
2023/04/05 01:54:06;;;;;;;;;;;;;;;-0.59;60.54;96925.59;5014073;28;19917;-69
2023/04/05 01:56:31;;;;;;;;;;;;;;;-0.60;60.11;96915.09;5006299;28;19924;-69
2023/04/05 01:58:56;;;;;;;;;;;;;;;-0.60;60.83;96917.78;4984213;28;19917;-70
2023/04/05 02:01:22;;;;;;;;;;;;;;;-0.54;59.56;96908.59;4996221;28;19929;-70
2023/04/05 02:03:47;;;;;;;;;;;;;;;-0.63;60.58;96913.81;5006726;28;19929;-69
2023/04/05 02:06:12;;;;;;;;;;;;;;;-0.66;60.75;96910.91;5000223;28;20281;-67
2023/04/05 02:08:37;;;;;;;;;;;;;;;-0.67;60.73;96909.28;5001431;28;19921;-69
2023/04/05 02:11:03;;;;;;;;;;;;;;;-0.68;61.12;96907.69;5001899;28;19921;-70
2023/04/05 02:13:28;;;;;;;;;;;;;;;-0.66;60.88;96909.00;4993344;28;19917;-69
2023/04/05 02:15:53;;;;;;;;;;;;;;;-0.68;61.01;96902.31;5005309;28;19921;-68
2023/04/05 02:18:21;;;;;;;;;;;;;;;-0.67;60.83;96899.31;5000832;28;19941;-69
2023/04/05 02:20:49;;;;;;;;;;;;;;;-0.69;61.15;96912.25;5005531;28;20449;-70
2023/04/05 02:23:15;;;;;;;;;;;;;;;-0.71;61.04;96897.50;5000633;28;20016;-69
2023/04/05 02:25:40;;;;;;;;;;;;;;;-0.74;61.93;96906.94;5005535;28;19933;-69
2023/04/05 02:28:05;;;;;;;;;;;;;;;-0.72;61.55;96901.28;4999405;28;20333;-70
2023/04/05 02:30:32;;;;;;;;;;;;;;;-0.76;61.38;96901.03;5005367;28;19925;-71
2023/04/05 02:32:57;;;;;;;;;;;;;;;-0.78;61.55;96903.22;5016822;28;20020;-69
2023/04/05 02:35:22;;;;;;;;;;;;;;;-0.78;61.91;96900.53;5013112;28;20274;-70
2023/04/05 02:37:48;;;;;;;;;;;;;;;-0.80;61.78;96892.75;5006090;28;19924;-69
2023/04/05 02:40:14;;;;;;;;;;;;;;;-0.81;62.07;96893.84;5000649;28;19964;-69
2023/04/05 02:42:41;;;;;;;;;;;;;;;-0.81;62.00;96893.03;5005183;28;19931;-70
2023/04/05 02:45:07;;;;;;;;;;;;;;;-0.80;62.02;96890.06;5015376;28;19924;-69
2023/04/05 02:47:32;;;;;;;;;;;;;;;-0.82;62.20;96891.44;5025538;28;19917;-69
2023/04/05 02:49:58;;;;;;;;;;;;;;;-0.83;61.75;96887.97;5025049;28;19921;-68
2023/04/05 02:52:23;;;;;;;;;;;;;;;-0.85;62.38;96882.06;5007920;28;20393;-69
2023/04/05 02:54:48;;;;;;;;;;;;;;;-0.80;62.05;96886.59;5009219;28;19917;-70
2023/04/05 02:57:13;;;;;;;;;;;;;;;-0.80;62.04;96881.19;5003667;28;19918;-69
2023/04/05 02:59:39;;;;;;;;;;;;;;;-0.82;61.75;96878.78;5006130;28;20024;-69
2023/04/05 03:02:05;;;;;;;;;;;;;;;-0.82;62.03;96884.19;5001801;28;19918;-68
2023/04/05 03:04:33;;;;;;;;;;;;;;;-0.85;62.68;96881.25;4998869;28;20473;-68
2023/04/05 03:07:02;;;;;;;;;;;;;;;-0.87;62.68;96878.06;5024368;28;20420;-68
2023/04/05 03:09:32;;;;;;;;;;;;;;;-0.88;62.30;96887.22;5021539;28;19925;-70
2023/04/05 03:12:00;;;;;;;;;;;;;;;-0.92;62.80;96873.53;5025025;28;19929;-69
2023/04/05 03:14:25;;;;;;;;;;;;;;;-0.93;62.77;96873.84;5021839;28;19920;-70
2023/04/05 03:16:50;;;;;;;;;;;;;;;-0.97;63.23;96876.31;5025343;28;19925;-70
2023/04/05 03:19:17;;;;;;;;;;;;;;;-0.96;62.87;96864.47;5019669;28;19921;-68
2023/04/05 03:21:44;;;;;;;;;;;;;;;-1.09;63.88;96867.84;5022309;28;20027;-70
2023/04/05 03:24:09;;;;;;;;;;;;;;;-1.11;63.71;96870.03;5018716;28;19976;-71
2023/04/05 03:26:35;;;;;;;;;;;;;;;-1.19;64.46;96863.38;5023979;28;19971;-70
2023/04/05 03:29:00;;;;;;;;;;;;;;;-1.25;65.09;96867.22;5024278;28;20015;-70
2023/04/05 03:31:28;;;;;;;;;;;;;;;-1.25;64.62;96867.22;5019329;28;19917;-68
2023/04/05 03:33:53;;;;;;;;;;;;;;;-1.32;65.33;96861.38;5023052;28;20357;-69
2023/04/05 03:36:18;;;;;;;;;;;;;;;-1.38;65.54;96863.34;5018737;28;20011;-69
2023/04/05 03:38:44;;;;;;;;;;;;;;;-1.44;66.31;96861.78;5023357;28;20291;-68
2023/04/05 03:41:10;;;;;;;;;;;;;;;-1.49;66.42;96862.63;5019248;28;19961;-69
2023/04/05 03:43:35;;;;;;;;;;;;;;;-1.52;66.50;96857.81;5021980;28;19971;-68
2023/04/05 03:46:00;;;;;;;;;;;;;;;-1.55;66.97;96856.53;5008958;28;19921;-69
2023/04/05 03:48:26;;;;;;;;;;;;;;;-1.57;66.93;96858.69;5021399;28;19934;-69
2023/04/05 03:50:51;;;;;;;;;;;;;;;-1.60;66.94;96858.47;5025901;28;19928;-69
2023/04/05 03:53:16;;;;;;;;;;;;;;;-1.64;67.07;96854.72;5032037;28;19943;-69
2023/04/05 03:55:48;;;;;;;;;;;;;;;-1.64;67.62;96855.53;5043208;28;19921;-71
2023/04/05 03:58:14;;;;;;;;;;;;;;;-1.67;67.40;96866.84;5032151;28;19932;-69
2023/04/05 04:00:39;;;;;;;;;;;;;;;-1.69;67.49;96857.44;5035531;28;19917;-70
2023/04/05 04:03:05;;;;;;;;;;;;;;;-1.75;68.01;96854.84;5009327;28;19941;-70
2023/04/05 04:05:31;;;;;;;;;;;;;;;-1.73;67.47;96859.91;4999574;28;19921;-70
2023/04/05 04:07:57;;;;;;;;;;;;;;;-1.82;67.90;96859.75;5006165;28;20306;-71
2023/04/05 04:10:22;;;;;;;;;;;;;;;-1.85;68.44;96862.97;4998207;28;20341;-68
2023/04/05 04:12:47;;;;;;;;;;;;;;;-1.84;68.22;96858.41;5004052;28;19972;-69
2023/04/05 04:15:13;;;;;;;;;;;;;;;-1.88;68.08;96852.81;4999811;28;20302;-71
2023/04/05 04:17:38;;;;;;;;;;;;;;;-1.85;67.68;96854.94;5004496;28;20357;-69
2023/04/05 04:20:10;;;;;;;;;;;;;;;-1.89;68.19;96855.75;5007775;28;19920;-71
2023/04/05 04:22:37;;;;;;;;;;;;;;;-1.90;67.96;96863.03;5015968;28;20386;-70
2023/04/05 04:25:09;;;;;;;;;;;;;;;-1.96;68.54;96864.97;5014828;28;19984;-72
2023/04/05 04:27:36;;;;;;;;;;;;;;;-1.96;68.19;96862.28;5021665;28;19924;-70
2023/04/05 04:30:02;;;;;;;;;;;;;;;-2.04;68.74;96867.44;5012898;28;20017;-69
2023/04/05 04:32:46;;;;;;;;;;;;;;;-2.00;68.48;96863.09;5004079;28;19961;-68
2023/04/05 04:35:16;;;;;;;;;;;;;;;-2.07;68.61;96863.44;4998339;28;19921;-70
2023/04/05 04:37:45;;;;;;;;;;;;;;;-2.06;69.10;96856.97;5004259;28;19928;-69
2023/04/05 04:40:16;;;;;;;;;;;;;;;-2.08;68.77;96848.41;4998846;28;19918;-70
2023/04/05 04:42:43;;;;;;;;;;;;;;;-2.11;69.64;96859.69;4999768;28;19917;-70
2023/04/05 04:45:09;;;;;;;;;;;;;;;-2.10;69.55;96866.69;5013569;28;19925;-69
2023/04/05 04:47:36;;;;;;;;;;;;;;;-2.09;69.21;96859.44;5030881;28;19925;-69
2023/04/05 04:50:03;;;;;;;;;;;;;;;-2.09;69.36;96854.84;5025960;28;19921;-70
2023/04/05 04:52:29;;;;;;;;;;;;;;;-2.13;69.76;96857.28;5004606;28;19997;-69
2023/04/05 04:54:54;;;;;;;;;;;;;;;-2.10;69.56;96863.22;5002060;28;20021;-69
2023/04/05 04:57:19;;;;;;;;;;;;;;;-2.13;69.86;96853.81;4999829;28;19921;-69
2023/04/05 04:59:44;;;;;;;;;;;;;;;-2.14;69.69;96853.03;5004504;28;19917;-70
2023/04/05 05:02:10;;;;;;;;;;;;;;;-2.09;69.93;96859.44;5000135;28;19925;-70
2023/04/05 05:04:35;;;;;;;;;;;;;;;-2.09;69.77;96859.44;5005348;28;19968;-70
2023/04/05 05:07:01;;;;;;;;;;;;;;;-2.07;69.28;96862.63;5002980;28;19917;-70
2023/04/05 05:09:26;;;;;;;;;;;;;;;-2.04;69.83;96862.06;4997620;28;19948;-69
2023/04/05 05:11:51;;;;;;;;;;;;;;;-2.01;69.23;96856.94;5003289;28;19918;-69
2023/04/05 05:14:17;;;;;;;;;;;;;;;-2.00;69.77;96866.59;4998879;28;20000;-70
2023/04/05 05:16:44;;;;;;;;;;;;;;;-1.99;69.55;96862.81;5004099;28;20420;-69
2023/04/05 05:19:09;;;;;;;;;;;;;;;-1.90;69.34;96863.03;4998192;28;20279;-69
2023/04/05 05:21:35;;;;;;;;;;;;;;;-1.70;69.08;96866.63;5001215;28;20012;-69
2023/04/05 05:24:00;;;;;;;;;;;;;;;-1.27;67.47;96866.72;5003004;28;19964;-70
2023/04/05 05:26:26;;;;;;;;;;;;;;;-0.96;66.23;96862.56;4996140;28;19959;-71
2023/04/05 05:28:51;;;;;;;;;;;;;;;-0.44;63.71;96861.88;5002958;28;19918;-70
2023/04/05 05:31:17;;;;;;;;;;;;;;;-0.14;61.71;96873.31;4996898;28;19964;-70
2023/04/05 05:33:44;;;;;;;;;;;;;;;0.41;59.89;96873.47;5009559;28;19921;-70
2023/04/05 05:36:09;;;;;;;;;;;;;;;0.15;60.13;96868.50;5017527;28;19936;-70
2023/04/05 05:38:35;;;;;;;;;;;;;;;0.46;58.85;96867.97;5022014;28;19921;-69
2023/04/05 05:41:00;;;;;;;;;;;;;;;0.97;58.33;96866.22;5021859;28;19967;-69
2023/04/05 05:43:25;;;;;;;;;;;;;;;0.49;58.05;96866.59;5015259;28;19982;-71
2023/04/05 05:45:50;;;;;;;;;;;;;;;0.74;59.19;96878.81;5004199;28;19917;-69
2023/04/05 05:48:16;;;;;;;;;;;;;;;0.79;57.63;96869.81;5000877;28;20366;-69
2023/04/05 05:50:43;;;;;;;;;;;;;;;0.59;57.43;96866.41;5008246;28;19921;-70
2023/04/05 05:53:09;;;;;;;;;;;;;;;1.04;56.24;96879.31;5020808;28;20024;-69
2023/04/05 05:55:35;;;;;;;;;;;;;;;1.18;56.20;96882.00;5006953;28;19920;-71
2023/04/05 05:58:00;;;;;;;;;;;;;;;1.75;54.84;96881.59;4991198;28;19917;-69
2023/04/05 06:00:26;;;;;;;;;;;;;;;2.03;54.39;96888.50;5019987;28;19990;-69
2023/04/05 06:02:51;;;;;;;;;;;;;;;1.83;54.77;96887.06;5025216;28;19921;-70
2023/04/05 06:05:16;;;;;;;;;;;;;;;1.09;54.75;96885.41;5014975;28;19948;-70
2023/04/05 06:07:42;;;;;;;;;;;;;;;1.54;54.34;96884.75;5004922;28;20020;-69
2023/04/05 06:10:07;;;;;;;;;;;;;;;2.01;53.60;96885.31;5000324;28;20366;-70
2023/04/05 06:12:33;;;;;;;;;;;;;;;2.81;52.33;96890.06;5006168;28;19925;-70
2023/04/05 06:14:59;;;;;;;;;;;;;;;2.01;52.43;96888.00;5006138;28;19957;-69
2023/04/05 06:17:25;;;;;;;;;;;;;;;1.63;54.04;96885.63;5002916;28;20382;-69
2023/04/05 06:19:50;;;;;;;;;;;;;;;2.08;53.67;96885.69;5007250;28;20424;-69
2023/04/05 06:22:16;;;;;;;;;;;;;;;2.60;52.68;96884.41;5002622;28;20298;-70
2023/04/05 06:24:42;;;;;;;;;;;;;;;2.16;52.05;96883.34;5006792;28;19971;-71
2023/04/05 06:27:07;;;;;;;;;;;;;;;2.70;52.61;96886.06;5003154;28;20080;-71
2023/04/05 06:29:32;;;;;;;;;;;;;;;1.73;52.77;96881.91;4996316;28;19936;-70
2023/04/05 06:31:58;;;;;;;;;;;;;;;2.37;52.41;96891.75;5016741;28;19917;-69
2023/04/05 06:34:23;;;;;;;;;;;;;;;1.98;52.74;96894.03;4981843;28;20480;-70
2023/04/05 06:36:49;;;;;;;;;;;;;;;2.03;53.90;96891.19;4986932;28;19918;-69
2023/04/05 06:39:14;;;;;;;;;;;;;;;2.14;52.09;96889.06;4982791;28;19972;-70
2023/04/05 06:41:39;;;;;;;;;;;;;;;2.77;51.58;96891.81;5004961;28;20343;-70
2023/04/05 06:44:05;;;;;;;;;;;;;;;3.27;49.54;96885.31;5003450;28;19917;-70
2023/04/05 06:46:30;;;;;;;;;;;;;;;1.82;51.51;96885.47;5026654;28;19921;-69
2023/04/05 06:48:56;;;;;;;;;;;;;;;2.92;50.24;96890.59;5026659;28;20008;-70
2023/04/05 06:51:22;;;;;;;;;;;;;;;3.58;48.02;96890.63;5021867;28;19936;-71
2023/04/05 06:53:47;;;;;;;;;;;;;;;2.27;50.31;96898.22;5025800;28;19918;-69
2023/04/05 06:56:12;;;;;;;;;;;;;;;3.74;47.76;96893.69;5029849;28;19917;-71
2023/04/05 06:58:38;;;;;;;;;;;;;;;3.73;47.87;96894.81;5047444;28;19985;-70
2023/04/05 07:01:04;;;;;;;;;;;;;;;3.34;47.75;96886.44;5043731;28;19917;-70
2023/04/05 07:03:29;;;;;;;;;;;;;;;3.41;47.95;96891.41;5043829;28;19964;-70
2023/04/05 07:05:57;;;;;;;;;;;;;;;4.40;46.58;96882.69;5029600;28;19917;-69
2023/04/05 07:08:24;;;;;;;;;;;;;;;4.93;46.32;96889.56;4981626;28;20396;-70
2023/04/05 07:10:49;;;;;;;;;;;;;;;5.23;44.94;96888.78;5020039;28;20349;-70
2023/04/05 07:13:18;;;;;;;;;;;;;;;6.94;42.10;96890.00;5000256;28;19971;-70
2023/04/05 07:15:43;;;;;;;;;;;;;;;6.64;40.82;96890.16;5003759;28;19926;-69
2023/04/05 07:18:09;;;;;;;;;;;;;;;7.40;39.47;96893.44;4999317;28;20334;-69
2023/04/05 07:20:34;;;;;;;;;;;;;;;6.36;40.69;96896.19;4986701;28;20371;-71
2023/04/05 07:22:59;;;;;;;;;;;;;;;5.36;41.99;96887.75;5006156;28;19928;-69
2023/04/05 07:25:25;;;;;;;;;;;;;;;5.42;42.55;96882.94;5000928;28;19975;-71
2023/04/05 07:27:51;;;;;;;;;;;;;;;6.40;42.71;96888.16;5004858;28;19968;-70
2023/04/05 07:30:17;;;;;;;;;;;;;;;4.12;44.96;96893.84;4998393;28;19960;-70
2023/04/05 07:32:42;;;;;;;;;;;;;;;4.06;45.57;96892.44;5002697;28;19956;-71
2023/04/05 07:35:08;;;;;;;;;;;;;;;5.34;42.97;96898.16;4998606;28;19968;-71
2023/04/05 07:37:33;;;;;;;;;;;;;;;4.55;45.26;96894.91;5004169;28;19925;-71
2023/04/05 07:39:58;;;;;;;;;;;;;;;5.44;43.54;96899.69;5003046;28;20276;-70
2023/04/05 07:42:24;;;;;;;;;;;;;;;6.37;41.07;96896.97;4997695;28;20223;-70
2023/04/05 07:44:50;;;;;;;;;;;;;;;5.91;42.68;96905.00;5015930;28;19921;-71
2023/04/05 07:47:15;;;;;;;;;;;;;;;7.52;42.59;96907.06;5017776;28;19921;-70
2023/04/05 07:49:41;;;;;;;;;;;;;;;6.91;41.98;96898.84;5021507;28;19921;-70
2023/04/05 07:52:06;;;;;;;;;;;;;;;5.64;42.87;96901.66;5026247;28;19967;-71
2023/04/05 07:54:32;;;;;;;;;;;;;;;5.69;41.99;96916.97;5006361;28;20014;-71
2023/04/05 07:56:57;;;;;;;;;;;;;;;6.48;41.78;96912.56;5024000;28;19921;-71
2023/04/05 07:59:23;;;;;;;;;;;;;;;5.76;42.82;96906.38;5017983;28;20157;-72
2023/04/05 08:01:48;;;;;;;;;;;;;;;5.14;43.64;96910.56;5023961;28;19924;-71
2023/04/05 08:04:14;;;;;;;;;;;;;;;6.48;41.63;96909.84;5000883;28;20015;-71
2023/04/05 08:06:39;;;;;;;;;;;;;;;7.68;39.82;96904.44;5027352;28;19917;-71
2023/04/05 08:09:07;;;;;;;;;;;;;;;5.66;42.38;96904.06;5013187;28;19959;-70
2023/04/05 08:11:33;;;;;;;;;;;;;;;6.19;40.90;96913.44;5003967;28;19922;-69
2023/04/05 08:13:58;;;;;;;;;;;;;;;5.47;41.21;96916.13;5022216;28;20306;-70
2023/04/05 08:16:23;;;;;;;;;;;;;;;5.63;41.75;96908.22;5001752;28;19943;-69
2023/04/05 08:18:49;;;;;;;;;;;;;;;5.81;41.29;96903.47;5003348;28;20034;-71
2023/04/05 08:21:14;;;;;;;;;;;;;;;5.58;41.86;96905.69;4997204;28;19975;-71
2023/04/05 08:23:40;;;;;;;;;;;;;;;5.25;42.70;96900.91;5003752;28;19925;-71
2023/04/05 08:26:06;;;;;;;;;;;;;;;7.76;40.29;96894.53;4998500;28;19965;-71
2023/04/05 08:28:32;;;;;;;;;;;;;;;6.91;38.81;96905.06;5002358;28;19924;-71
2023/04/05 08:30:57;;;;;;;;;;;;;;;6.25;42.25;96908.63;5003512;28;19921;-70
2023/04/05 08:33:22;;;;;;;;;;;;;;;5.92;43.11;96898.44;4996707;28;20123;-69
2023/04/05 08:35:48;;;;;;;;;;;;;;;5.46;43.68;96909.13;5002388;28;20012;-72
2023/04/05 08:38:13;;;;;;;;;;;;;;;7.41;40.00;96905.94;5000392;28;19979;-71
2023/04/05 08:40:42;;;;;;;;;;;;;;;4.70;43.84;96910.69;4995517;28;19921;-71
2023/04/05 08:43:11;;;;;;;;;;;;;;;5.66;43.65;96899.41;5005592;28;19917;-70
2023/04/05 08:45:43;;;;;;;;;;;;;;;7.46;39.38;96897.53;5020000;28;19944;-70
2023/04/05 08:48:08;;;;;;;;;;;;;;;7.38;40.21;96899.25;5018094;28;20267;-71
2023/04/05 08:50:33;;;;;;;;;;;;;;;5.83;42.76;96903.94;5023084;28;19943;-70
2023/04/05 08:52:59;;;;;;;;;;;;;;;5.55;43.00;96896.28;5023362;28;19921;-69
2023/04/05 08:55:25;;;;;;;;;;;;;;;4.72;44.52;96894.88;5018016;28;20290;-72
2023/04/05 08:57:52;;;;;;;;;;;;;;;4.86;44.05;96902.03;5023101;28;19924;-71
2023/04/05 09:00:18;;;;;;;;;;;;;;;5.93;43.95;96905.47;4983666;28;19917;-70
2023/04/05 09:02:46;;;;;;;;;;;;;;;8.38;39.88;96895.97;5022055;28;20378;-70
2023/04/05 09:05:12;;;;;;;;;;;;;;;10.81;34.66;96902.03;5011535;28;19925;-69
2023/04/05 09:07:38;;;;;;;;;;;;;;;12.09;32.83;96903.72;5021507;28;19917;-70
2023/04/05 09:10:05;;;;;;;;;;;;;;;6.82;39.61;96909.81;5020713;28;20066;-71
2023/04/05 09:12:31;;;;;;;;;;;;;;;6.63;39.84;96907.63;5006110;28;19935;-69
2023/04/05 09:14:58;;;;;;;;;;;;;;;7.63;37.76;96910.13;5025004;28;20318;-71
2023/04/05 09:17:24;;;;;;;;;;;;;;;7.93;38.41;96907.13;5002499;28;19921;-71
2023/04/05 09:19:49;;;;;;;;;;;;;;;7.68;38.03;96911.81;5028680;28;19928;-71
2023/04/05 09:22:17;;;;;;;;;;;;;;;10.49;34.56;96909.63;5022435;28;19991;-71
2023/04/05 09:24:43;;;;;;;;;;;;;;;10.28;34.87;96910.75;5027420;28;19917;-71
2023/04/05 09:27:10;;;;;;;;;;;;;;;11.12;32.19;96907.66;5021489;28;19940;-69
2023/04/05 09:29:36;;;;;;;;;;;;;;;12.55;30.48;96906.25;5026913;28;20011;-71
2023/04/05 09:32:03;;;;;;;;;;;;;;;12.88;29.89;96915.66;5028995;28;19927;-71
2023/04/05 09:34:32;;;;;;;;;;;;;;;12.33;29.31;96903.22;5012762;28;19921;-71
2023/04/05 09:36:57;;;;;;;;;;;;;;;13.34;27.84;96898.81;5029646;28;19921;-72
2023/04/05 09:39:29;;;;;;;;;;;;;;;11.08;30.24;96907.59;5007767;28;19917;-72
2023/04/05 09:42:05;;;;;;;;;;;;;;;11.91;30.27;96903.47;5044078;28;19939;-71
2023/04/05 09:44:53;;;;;;;;;;;;;;;8.17;35.96;96898.88;5022407;28;19922;-72
2023/04/05 09:47:20;;;;;;;;;;;;;;;9.81;33.87;96908.94;5026044;28;19917;-70
2023/04/05 09:49:45;;;;;;;;;;;;;;;10.75;32.04;96908.97;5008558;28;19940;-70
2023/04/05 09:52:21;;;;;;;;;;;;;;;8.86;35.12;96906.22;5025258;28;19920;-71
2023/04/05 09:54:47;;;;;;;;;;;;;;;11.93;31.09;96914.84;5024260;28;19979;-71
2023/04/05 09:57:14;;;;;;;;;;;;;;;12.73;28.41;96909.19;5021330;28;20770;-71
2023/04/05 09:59:39;;;;;;;;;;;;;;;9.37;32.91;96909.09;5026568;28;19921;-71
2023/04/05 10:02:05;;;;;;;;;;;;;;;7.64;36.74;96914.44;5020942;28;19965;-70
2023/04/05 10:04:37;;;;;;;;;;;;;;;7.45;36.89;96913.09;5001666;28;20443;-70
2023/04/05 10:07:03;;;;;;;;;;;;;;;8.17;35.18;96909.00;5013732;28;20391;-70
2023/04/05 10:09:28;;;;;;;;;;;;;;;7.11;37.54;96910.78;5024375;28;19925;-71
2023/04/05 10:11:54;;;;;;;;;;;;;;;7.09;35.87;96916.56;5029750;28;19921;-70
2023/04/05 10:14:20;;;;;;;;;;;;;;;9.17;32.82;96906.25;5023894;28;19921;-71
2023/04/05 10:17:09;;;;;;;;;;;;;;;10.98;31.16;96903.50;5030214;28;19917;-72
2023/04/05 10:19:34;;;;;;;;;;;;;;;11.38;29.90;96909.66;4997468;28;19925;-71
2023/04/05 10:22:01;;;;;;;;;;;;;;;7.13;36.86;96903.06;5026246;28;19921;-71
2023/04/05 10:24:26;;;;;;;;;;;;;;;6.88;36.73;96906.56;5020945;28;19924;-72
2023/04/05 10:26:57;;;;;;;;;;;;;;;8.98;33.12;96908.91;5025519;28;19921;-70
2023/04/05 10:29:31;;;;;;;;;;;;;;;9.29;33.08;96901.84;5021557;28;19929;-70
2023/04/05 10:32:08;;;;;;;;;;;;;;;9.67;32.75;96908.59;5023702;28;19968;-71
2023/04/05 10:34:43;;;;;;;;;;;;;;;10.57;30.95;96899.59;5024320;28;19929;-72
2023/04/05 10:37:15;;;;;;;;;;;;;;;11.64;29.73;96898.72;5003304;28;20374;-71
2023/04/05 10:39:43;;;;;;;;;;;;;;;12.26;28.61;96903.13;5024177;28;20390;-71
2023/04/05 10:42:19;;;;;;;;;;;;;;;11.24;28.09;96900.03;5020198;28;19917;-70
2023/04/05 10:44:45;;;;;;;;;;;;;;;8.83;31.22;96902.28;5026491;28;19917;-69
2023/04/05 10:47:12;;;;;;;;;;;;;;;8.55;33.09;96903.09;5020871;28;19955;-71
2023/04/05 10:49:39;;;;;;;;;;;;;;;7.13;34.18;96903.88;5028850;28;19928;-72
2023/04/05 10:52:05;;;;;;;;;;;;;;;7.70;34.84;96893.97;5010470;28;20290;-71
2023/04/05 10:54:35;;;;;;;;;;;;;;;8.06;34.44;96899.72;5005871;28;19921;-71
2023/04/05 10:57:03;;;;;;;;;;;;;;;7.96;31.71;96900.97;5004957;28;19925;-71
2023/04/05 10:59:29;;;;;;;;;;;;;;;8.80;31.44;96908.44;5003134;28;20032;-71
2023/04/05 11:01:54;;;;;;;;;;;;;;;10.13;29.14;96904.16;5004150;28;19980;-72
2023/04/05 11:04:20;;;;;;;;;;;;;;;10.58;29.26;96901.97;5008297;28;19921;-72
2023/04/05 11:06:48;;;;;;;;;;;;;;;9.69;29.96;96896.19;4994721;28;19924;-70
2023/04/05 11:09:20;;;;;;;;;;;;;;;9.50;30.54;96898.84;5017285;28;19924;-70
2023/04/05 11:11:45;;;;;;;;;;;;;;;9.67;30.74;96890.28;5021024;28;20040;-71
2023/04/05 11:14:21;;;;;;;;;;;;;;;6.96;35.54;96888.53;5013020;28;20046;-71
2023/04/05 11:16:48;;;;;;;;;;;;;;;7.76;34.11;96891.81;5023635;28;19921;-71
2023/04/05 11:19:16;;;;;;;;;;;;;;;9.12;32.01;96878.41;5019301;28;19921;-70
2023/04/05 11:21:43;;;;;;;;;;;;;;;9.99;30.80;96881.19;5024415;28;20007;-70
2023/04/05 11:24:10;;;;;;;;;;;;;;;9.64;30.92;96882.00;5019401;28;19917;-69
2023/04/05 11:26:39;;;;;;;;;;;;;;;8.27;33.40;96881.22;5023712;28;19924;-69
2023/04/05 11:29:04;;;;;;;;;;;;;;;8.99;32.58;96874.97;5018943;28;19917;-70
2023/04/05 11:31:30;;;;;;;;;;;;;;;9.43;32.22;96877.59;5022362;28;19917;-70
2023/04/05 11:33:58;;;;;;;;;;;;;;;10.60;30.17;96875.00;5021759;28;19917;-71
2023/04/05 11:36:33;;;;;;;;;;;;;;;11.82;28.25;96870.75;5017277;28;19925;-70
2023/04/05 11:39:24;;;;;;;;;;;;;;;13.01;26.40;96864.72;5022634;28;19924;-71
2023/04/05 11:42:11;;;;;;;;;;;;;;;11.47;27.34;96867.13;5019543;28;19984;-71
2023/04/05 11:44:39;;;;;;;;;;;;;;;12.40;27.36;96862.13;5028156;28;19928;-70
2023/04/05 11:47:05;;;;;;;;;;;;;;;11.95;29.19;96863.13;5019694;28;20015;-70
2023/04/05 11:49:30;;;;;;;;;;;;;;;9.86;30.77;96862.16;5005563;28;19921;-71
2023/04/05 11:51:56;;;;;;;;;;;;;;;9.45;30.82;96858.09;5011807;28;19917;-71
2023/04/05 11:54:31;;;;;;;;;;;;;;;9.15;31.48;96853.91;5014685;28;20776;-70
2023/04/05 11:56:56;;;;;;;;;;;;;;;8.66;33.14;96850.69;5004941;28;19924;-70
2023/04/05 11:59:29;;;;;;;;;;;;;;;7.90;36.26;96864.19;4999859;28;19925;-69
2023/04/05 12:01:58;;;;;;;;;;;;;;;8.46;37.50;96858.75;5004917;28;19965;-71
2023/04/05 12:04:23;;;;;;;;;;;;;;;8.23;35.44;96847.59;5007342;28;20596;-70
2023/04/05 12:07:06;;;;;;;;;;;;;;;8.87;36.76;96839.53;5015561;28;20019;-71
2023/04/05 12:09:31;;;;;;;;;;;;;;;9.12;34.19;96848.34;5021856;28;19921;-70
2023/04/05 12:11:57;;;;;;;;;;;;;;;9.19;35.71;96848.53;5023578;28;19939;-69
2023/04/05 12:14:22;;;;;;;;;;;;;;;9.23;36.13;96833.00;5017718;28;19917;-70
2023/04/05 12:16:48;;;;;;;;;;;;;;;9.65;35.63;96835.16;5005415;28;19923;-70
2023/04/05 12:19:15;;;;;;;;;;;;;;;10.05;34.46;96833.25;5016198;28;19949;-71
2023/04/05 12:21:40;;;;;;;;;;;;;;;10.08;34.80;96838.78;5023472;28;19968;-71
2023/04/05 12:24:05;;;;;;;;;;;;;;;10.20;34.49;96840.56;5019658;28;19967;-70
2023/04/05 12:26:33;;;;;;;;;;;;;;;10.24;34.11;96837.91;5025681;28;19917;-69
2023/04/05 12:29:02;;;;;;;;;;;;;;;9.90;35.42;96823.94;4992047;28;19917;-70
2023/04/05 12:31:37;;;;;;;;;;;;;;;9.85;35.21;96827.75;5028388;28;19921;-71
2023/04/05 12:34:02;;;;;;;;;;;;;;;10.12;34.64;96827.91;5041023;28;19928;-71
2023/04/05 12:36:28;;;;;;;;;;;;;;;9.81;35.18;96818.66;5033454;28;20012;-71
2023/04/05 12:38:54;;;;;;;;;;;;;;;9.98;34.12;96824.88;5039581;28;19920;-71
2023/04/05 12:41:26;;;;;;;;;;;;;;;9.69;35.00;96822.34;5030201;28;19993;-71
2023/04/05 12:43:57;;;;;;;;;;;;;;;9.36;35.03;96825.50;5022674;28;19921;-71
2023/04/05 12:46:37;;;;;;;;;;;;;;;9.27;36.30;96822.94;5016243;28;19932;-70
2023/04/05 12:49:03;;;;;;;;;;;;;;;9.14;36.75;96821.47;5020378;28;19921;-72
2023/04/05 12:51:30;;;;;;;;;;;;;;;9.31;35.56;96825.75;5012129;28;19943;-71